sensor_id;sensor_type;location;lat;lon;timestamp;temperature;humidity
68867;SHT30;56451;44.804;20.476;2023-05-10T00:01:38;13.85;61.85
68867;SHT30;56451;44.804;20.476;2023-05-10T00:04:04;13.84;61.72
68867;SHT30;56451;44.804;20.476;2023-05-10T00:06:30;13.84;61.67
68867;SHT30;56451;44.804;20.476;2023-05-10T00:08:57;13.85;61.58
68867;SHT30;56451;44.804;20.476;2023-05-10T00:11:23;13.87;61.34
68867;SHT30;56451;44.804;20.476;2023-05-10T00:13:49;13.83;61.51
68867;SHT30;56451;44.804;20.476;2023-05-10T00:16:15;13.83;61.32
68867;SHT30;56451;44.804;20.476;2023-05-10T00:18:41;13.83;61.21
68867;SHT30;56451;44.804;20.476;2023-05-10T00:21:07;13.81;61.08
68867;SHT30;56451;44.804;20.476;2023-05-10T00:23:32;13.81;61.11
68867;SHT30;56451;44.804;20.476;2023-05-10T00:25:58;13.74;61.21
68867;SHT30;56451;44.804;20.476;2023-05-10T00:28:25;13.70;61.30
68867;SHT30;56451;44.804;20.476;2023-05-10T00:30:52;13.69;61.23
68867;SHT30;56451;44.804;20.476;2023-05-10T00:33:18;13.66;61.23
68867;SHT30;56451;44.804;20.476;2023-05-10T00:35:44;13.63;61.25
68867;SHT30;56451;44.804;20.476;2023-05-10T00:38:10;13.63;61.28
68867;SHT30;56451;44.804;20.476;2023-05-10T00:40:36;13.59;61.32
68867;SHT30;56451;44.804;20.476;2023-05-10T00:43:05;13.60;61.45
68867;SHT30;56451;44.804;20.476;2023-05-10T00:45:32;13.56;61.43
68867;SHT30;56451;44.804;20.476;2023-05-10T00:48:01;13.53;61.52
68867;SHT30;56451;44.804;20.476;2023-05-10T00:50:28;13.50;61.61
68867;SHT30;56451;44.804;20.476;2023-05-10T00:52:54;13.49;61.77
68867;SHT30;56451;44.804;20.476;2023-05-10T00:55:20;13.50;61.72
68867;SHT30;56451;44.804;20.476;2023-05-10T00:57:47;13.52;61.66
68867;SHT30;56451;44.804;20.476;2023-05-10T01:00:13;13.53;61.65
68867;SHT30;56451;44.804;20.476;2023-05-10T01:02:46;13.55;61.56
68867;SHT30;56451;44.804;20.476;2023-05-10T01:05:12;13.52;61.61
68867;SHT30;56451;44.804;20.476;2023-05-10T01:07:38;13.52;61.69
68867;SHT30;56451;44.804;20.476;2023-05-10T01:10:06;13.53;61.70
68867;SHT30;56451;44.804;20.476;2023-05-10T01:12:37;13.50;61.76
68867;SHT30;56451;44.804;20.476;2023-05-10T01:15:05;13.52;61.82
68867;SHT30;56451;44.804;20.476;2023-05-10T01:17:32;13.52;61.84
68867;SHT30;56451;44.804;20.476;2023-05-10T01:19:59;13.53;61.92
68867;SHT30;56451;44.804;20.476;2023-05-10T01:39:11;13.47;62.20
68867;SHT30;56451;44.804;20.476;2023-05-10T01:41:48;13.49;62.09
68867;SHT30;56451;44.804;20.476;2023-05-10T01:44:27;13.50;61.98
68867;SHT30;56451;44.804;20.476;2023-05-10T01:47:09;13.53;62.08
68867;SHT30;56451;44.804;20.476;2023-05-10T01:49:42;13.50;62.11
68867;SHT30;56451;44.804;20.476;2023-05-10T01:52:12;13.56;62.01
68867;SHT30;56451;44.804;20.476;2023-05-10T01:54:44;13.49;62.12
68867;SHT30;56451;44.804;20.476;2023-05-10T01:57:11;13.47;62.25
68867;SHT30;56451;44.804;20.476;2023-05-10T01:59:43;13.45;62.30
68867;SHT30;56451;44.804;20.476;2023-05-10T02:02:11;13.49;62.28
68867;SHT30;56451;44.804;20.476;2023-05-10T02:04:41;13.47;62.27
68867;SHT30;56451;44.804;20.476;2023-05-10T02:07:08;13.49;62.28
68867;SHT30;56451;44.804;20.476;2023-05-10T02:09:36;13.50;62.33
68867;SHT30;56451;44.804;20.476;2023-05-10T02:12:03;13.49;62.39
68867;SHT30;56451;44.804;20.476;2023-05-10T02:14:34;13.49;62.42
68867;SHT30;56451;44.804;20.476;2023-05-10T02:17:02;13.45;62.55
68867;SHT30;56451;44.804;20.476;2023-05-10T02:19:30;13.45;62.60
68867;SHT30;56451;44.804;20.476;2023-05-10T02:21:59;13.46;62.59
68867;SHT30;56451;44.804;20.476;2023-05-10T02:24:27;13.45;62.72
68867;SHT30;56451;44.804;20.476;2023-05-10T02:26:54;13.39;62.87
68867;SHT30;56451;44.804;20.476;2023-05-10T02:29:25;13.42;62.88
68867;SHT30;56451;44.804;20.476;2023-05-10T02:31:54;13.42;62.95
68867;SHT30;56451;44.804;20.476;2023-05-10T02:34:21;13.36;63.07
68867;SHT30;56451;44.804;20.476;2023-05-10T02:36:50;13.34;63.18
68867;SHT30;56451;44.804;20.476;2023-05-10T02:39:18;13.36;63.25
68867;SHT30;56451;44.804;20.476;2023-05-10T02:41:46;13.36;63.29
68867;SHT30;56451;44.804;20.476;2023-05-10T02:44:15;13.39;63.23
68867;SHT30;56451;44.804;20.476;2023-05-10T02:46:43;13.39;63.27
68867;SHT30;56451;44.804;20.476;2023-05-10T02:49:09;13.38;63.47
68867;SHT30;56451;44.804;20.476;2023-05-10T02:51:37;13.40;63.53
68867;SHT30;56451;44.804;20.476;2023-05-10T02:54:15;13.40;63.52
68867;SHT30;56451;44.804;20.476;2023-05-10T02:56:47;13.40;63.48
68867;SHT30;56451;44.804;20.476;2023-05-10T02:59:15;13.40;63.59
68867;SHT30;56451;44.804;20.476;2023-05-10T03:01:41;13.40;63.58
68867;SHT30;56451;44.804;20.476;2023-05-10T03:04:07;13.39;63.58
68867;SHT30;56451;44.804;20.476;2023-05-10T03:06:33;13.42;63.40
68867;SHT30;56451;44.804;20.476;2023-05-10T03:09:01;13.40;63.37
68867;SHT30;56451;44.804;20.476;2023-05-10T03:15:00;13.40;63.34
68867;SHT30;56451;44.804;20.476;2023-05-10T03:17:34;13.45;63.25
68867;SHT30;56451;44.804;20.476;2023-05-10T03:20:10;13.45;63.20
68867;SHT30;56451;44.804;20.476;2023-05-10T03:22:50;13.45;63.15
68867;SHT30;56451;44.804;20.476;2023-05-10T03:25:18;13.46;63.06
68867;SHT30;56451;44.804;20.476;2023-05-10T03:27:47;13.50;62.95
68867;SHT30;56451;44.804;20.476;2023-05-10T03:30:13;13.49;62.93
68867;SHT30;56451;44.804;20.476;2023-05-10T03:32:40;13.49;63.00
68867;SHT30;56451;44.804;20.476;2023-05-10T03:35:11;13.50;62.88
68867;SHT30;56451;44.804;20.476;2023-05-10T03:37:37;13.49;62.94
68867;SHT30;56451;44.804;20.476;2023-05-10T03:40:04;13.47;62.99
68867;SHT30;56451;44.804;20.476;2023-05-10T03:42:38;13.47;63.09
68867;SHT30;56451;44.804;20.476;2023-05-10T03:45:05;13.46;63.08
68867;SHT30;56451;44.804;20.476;2023-05-10T03:47:31;13.49;62.99
68867;SHT30;56451;44.804;20.476;2023-05-10T03:49:58;13.52;63.03
68867;SHT30;56451;44.804;20.476;2023-05-10T03:52:24;13.47;63.16
68867;SHT30;56451;44.804;20.476;2023-05-10T03:54:50;13.47;63.18
68867;SHT30;56451;44.804;20.476;2023-05-10T03:57:17;13.52;63.19
68867;SHT30;56451;44.804;20.476;2023-05-10T03:59:43;13.50;63.35
68867;SHT30;56451;44.804;20.476;2023-05-10T04:02:08;13.55;63.22
68867;SHT30;56451;44.804;20.476;2023-05-10T04:04:35;13.59;63.24
68867;SHT30;56451;44.804;20.476;2023-05-10T04:07:02;13.53;63.38
68867;SHT30;56451;44.804;20.476;2023-05-10T04:09:28;13.57;63.39
68867;SHT30;56451;44.804;20.476;2023-05-10T04:11:54;13.56;63.62
68867;SHT30;56451;44.804;20.476;2023-05-10T04:14:22;13.57;63.63
68867;SHT30;56451;44.804;20.476;2023-05-10T04:16:48;13.59;63.74
68867;SHT30;56451;44.804;20.476;2023-05-10T04:19:14;13.55;63.89
68867;SHT30;56451;44.804;20.476;2023-05-10T04:21:40;13.62;63.94
68867;SHT30;56451;44.804;20.476;2023-05-10T04:24:06;13.63;63.98
68867;SHT30;56451;44.804;20.476;2023-05-10T04:26:32;13.64;64.01
68867;SHT30;56451;44.804;20.476;2023-05-10T04:28:58;13.66;64.11
68867;SHT30;56451;44.804;20.476;2023-05-10T04:31:24;13.70;64.18
68867;SHT30;56451;44.804;20.476;2023-05-10T04:33:50;13.73;64.26
68867;SHT30;56451;44.804;20.476;2023-05-10T04:36:16;13.78;64.28
68867;SHT30;56451;44.804;20.476;2023-05-10T04:38:42;13.80;64.23
68867;SHT30;56451;44.804;20.476;2023-05-10T04:41:09;13.83;64.30
68867;SHT30;56451;44.804;20.476;2023-05-10T04:43:35;13.84;64.29
68867;SHT30;56451;44.804;20.476;2023-05-10T04:46:02;13.84;64.44
68867;SHT30;56451;44.804;20.476;2023-05-10T04:48:28;13.85;64.59
68867;SHT30;56451;44.804;20.476;2023-05-10T04:50:53;13.87;64.57
68867;SHT30;56451;44.804;20.476;2023-05-10T04:53:19;13.98;64.48
68867;SHT30;56451;44.804;20.476;2023-05-10T04:55:45;14.00;64.37
68867;SHT30;56451;44.804;20.476;2023-05-10T04:58:12;13.98;64.36
68867;SHT30;56451;44.804;20.476;2023-05-10T05:00:38;14.03;64.41
68867;SHT30;56451;44.804;20.476;2023-05-10T05:03:04;14.07;64.34
68867;SHT30;56451;44.804;20.476;2023-05-10T05:05:30;14.05;64.51
68867;SHT30;56451;44.804;20.476;2023-05-10T05:07:56;14.07;64.51
68867;SHT30;56451;44.804;20.476;2023-05-10T05:10:22;14.15;64.38
68867;SHT30;56451;44.804;20.476;2023-05-10T05:12:48;14.17;64.39
68867;SHT30;56451;44.804;20.476;2023-05-10T05:15:13;14.18;64.29
68867;SHT30;56451;44.804;20.476;2023-05-10T05:17:42;14.21;64.20
68867;SHT30;56451;44.804;20.476;2023-05-10T05:20:09;14.24;64.06
68867;SHT30;56451;44.804;20.476;2023-05-10T05:22:36;14.25;64.15
68867;SHT30;56451;44.804;20.476;2023-05-10T05:25:03;14.31;63.99
68867;SHT30;56451;44.804;20.476;2023-05-10T05:27:29;14.35;63.92
68867;SHT30;56451;44.804;20.476;2023-05-10T05:29:56;14.41;63.67
68867;SHT30;56451;44.804;20.476;2023-05-10T05:32:23;14.41;63.64
68867;SHT30;56451;44.804;20.476;2023-05-10T05:34:49;14.48;63.46
68867;SHT30;56451;44.804;20.476;2023-05-10T05:37:16;14.49;63.53
68867;SHT30;56451;44.804;20.476;2023-05-10T05:39:43;14.51;63.23
68867;SHT30;56451;44.804;20.476;2023-05-10T05:42:09;14.58;63.16
68867;SHT30;56451;44.804;20.476;2023-05-10T05:44:35;14.61;62.95
68867;SHT30;56451;44.804;20.476;2023-05-10T05:47:02;14.68;62.73
68867;SHT30;56451;44.804;20.476;2023-05-10T05:49:27;14.70;62.65
68867;SHT30;56451;44.804;20.476;2023-05-10T05:51:54;14.79;62.24
68867;SHT30;56451;44.804;20.476;2023-05-10T05:54:20;14.84;61.82
68867;SHT30;56451;44.804;20.476;2023-05-10T05:56:46;14.84;61.85
68867;SHT30;56451;44.804;20.476;2023-05-10T05:59:12;14.87;61.78
68867;SHT30;56451;44.804;20.476;2023-05-10T06:01:38;14.84;61.78
68867;SHT30;56451;44.804;20.476;2023-05-10T06:04:04;14.84;61.95
68867;SHT30;56451;44.804;20.476;2023-05-10T06:06:30;14.90;61.68
68867;SHT30;56451;44.804;20.476;2023-05-10T06:08:57;14.96;61.57
68867;SHT30;56451;44.804;20.476;2023-05-10T06:11:23;15.00;61.12
68867;SHT30;56451;44.804;20.476;2023-05-10T06:13:49;15.06;61.16
68867;SHT30;56451;44.804;20.476;2023-05-10T06:16:15;15.07;61.36
68867;SHT30;56451;44.804;20.476;2023-05-10T06:18:41;15.18;61.20
68867;SHT30;56451;44.804;20.476;2023-05-10T06:21:07;15.23;60.89
68867;SHT30;56451;44.804;20.476;2023-05-10T06:23:33;15.30;60.77
68867;SHT30;56451;44.804;20.476;2023-05-10T06:25:59;15.32;60.58
68867;SHT30;56451;44.804;20.476;2023-05-10T06:28:25;15.42;60.31
68867;SHT30;56451;44.804;20.476;2023-05-10T06:30:51;15.48;59.99
68867;SHT30;56451;44.804;20.476;2023-05-10T06:33:17;15.54;59.91
68867;SHT30;56451;44.804;20.476;2023-05-10T06:35:43;15.55;60.07
68867;SHT30;56451;44.804;20.476;2023-05-10T06:38:09;15.58;60.07
68867;SHT30;56451;44.804;20.476;2023-05-10T06:40:35;15.66;59.76
68867;SHT30;56451;44.804;20.476;2023-05-10T06:43:01;15.72;59.42
68867;SHT30;56451;44.804;20.476;2023-05-10T06:45:27;15.76;59.34
68867;SHT30;56451;44.804;20.476;2023-05-10T06:47:53;15.81;59.31
68867;SHT30;56451;44.804;20.476;2023-05-10T06:50:19;15.88;59.64
68867;SHT30;56451;44.804;20.476;2023-05-10T06:52:45;15.96;58.81
68867;SHT30;56451;44.804;20.476;2023-05-10T06:55:11;15.99;59.35
68867;SHT30;56451;44.804;20.476;2023-05-10T06:57:36;16.09;59.23
68867;SHT30;56451;44.804;20.476;2023-05-10T07:00:03;16.14;58.50
68867;SHT30;56451;44.804;20.476;2023-05-10T07:02:30;16.17;58.62
68867;SHT30;56451;44.804;20.476;2023-05-10T07:04:56;16.23;58.65
68867;SHT30;56451;44.804;20.476;2023-05-10T07:07:23;16.27;58.16
68867;SHT30;56451;44.804;20.476;2023-05-10T07:09:49;16.36;58.23
68867;SHT30;56451;44.804;20.476;2023-05-10T07:12:15;16.44;58.05
68867;SHT30;56451;44.804;20.476;2023-05-10T07:14:42;16.51;57.90
68867;SHT30;56451;44.804;20.476;2023-05-10T07:17:08;16.54;57.79
68867;SHT30;56451;44.804;20.476;2023-05-10T07:19:33;16.60;57.64
68867;SHT30;56451;44.804;20.476;2023-05-10T07:21:59;16.68;57.28
68867;SHT30;56451;44.804;20.476;2023-05-10T07:24:25;16.72;57.47
68867;SHT30;56451;44.804;20.476;2023-05-10T07:26:51;16.81;57.40
68867;SHT30;56451;44.804;20.476;2023-05-10T07:29:17;16.92;57.27
68867;SHT30;56451;44.804;20.476;2023-05-10T07:31:43;16.99;57.12
68867;SHT30;56451;44.804;20.476;2023-05-10T07:34:09;17.06;56.87
68867;SHT30;56451;44.804;20.476;2023-05-10T07:36:35;17.16;56.26
68867;SHT30;56451;44.804;20.476;2023-05-10T07:39:01;17.20;56.05
68867;SHT30;56451;44.804;20.476;2023-05-10T07:41:27;17.22;56.06
68867;SHT30;56451;44.804;20.476;2023-05-10T07:43:53;17.23;55.95
68867;SHT30;56451;44.804;20.476;2023-05-10T07:46:19;17.22;55.88
68867;SHT30;56451;44.804;20.476;2023-05-10T07:48:45;17.24;55.82
68867;SHT30;56451;44.804;20.476;2023-05-10T07:51:11;17.23;55.91
68867;SHT30;56451;44.804;20.476;2023-05-10T07:53:37;17.29;55.65
68867;SHT30;56451;44.804;20.476;2023-05-10T07:56:26;17.33;55.55
68867;SHT30;56451;44.804;20.476;2023-05-10T07:58:59;17.32;56.01
68867;SHT30;56451;44.804;20.476;2023-05-10T08:01:25;17.36;55.83
68867;SHT30;56451;44.804;20.476;2023-05-10T08:03:52;17.39;55.83
68867;SHT30;56451;44.804;20.476;2023-05-10T08:06:19;17.46;55.66
68867;SHT30;56451;44.804;20.476;2023-05-10T08:08:46;17.47;55.45
68867;SHT30;56451;44.804;20.476;2023-05-10T08:11:16;17.53;55.36
68867;SHT30;56451;44.804;20.476;2023-05-10T08:13:42;17.55;55.39
68867;SHT30;56451;44.804;20.476;2023-05-10T08:16:08;17.63;55.17
68867;SHT30;56451;44.804;20.476;2023-05-10T08:18:34;17.71;54.79
68867;SHT30;56451;44.804;20.476;2023-05-10T08:21:00;17.80;54.84
68867;SHT30;56451;44.804;20.476;2023-05-10T08:23:26;17.88;54.54
68867;SHT30;56451;44.804;20.476;2023-05-10T08:25:52;17.97;54.03
68867;SHT30;56451;44.804;20.476;2023-05-10T08:28:18;18.06;53.36
68867;SHT30;56451;44.804;20.476;2023-05-10T08:30:43;18.11;53.23
68867;SHT30;56451;44.804;20.476;2023-05-10T08:33:09;18.15;53.10
68867;SHT30;56451;44.804;20.476;2023-05-10T08:35:35;18.19;53.12
68867;SHT30;56451;44.804;20.476;2023-05-10T08:38:01;18.22;53.11
68867;SHT30;56451;44.804;20.476;2023-05-10T08:40:27;18.25;52.76
68867;SHT30;56451;44.804;20.476;2023-05-10T08:43:07;18.28;52.88
68867;SHT30;56451;44.804;20.476;2023-05-10T08:45:37;18.35;52.34
68867;SHT30;56451;44.804;20.476;2023-05-10T08:48:05;18.38;52.39
68867;SHT30;56451;44.804;20.476;2023-05-10T08:50:32;18.40;52.41
68867;SHT30;56451;44.804;20.476;2023-05-10T08:53:00;18.49;52.27
68867;SHT30;56451;44.804;20.476;2023-05-10T08:55:29;18.53;51.95
68867;SHT30;56451;44.804;20.476;2023-05-10T08:57:56;18.59;51.77
68867;SHT30;56451;44.804;20.476;2023-05-10T09:00:22;18.69;51.36
68867;SHT30;56451;44.804;20.476;2023-05-10T09:02:49;18.70;51.38
68867;SHT30;56451;44.804;20.476;2023-05-10T09:05:15;18.78;51.07
68867;SHT30;56451;44.804;20.476;2023-05-10T09:07:43;18.81;51.18
68867;SHT30;56451;44.804;20.476;2023-05-10T09:10:10;18.81;50.81
68867;SHT30;56451;44.804;20.476;2023-05-10T09:12:37;18.84;50.57
68867;SHT30;56451;44.804;20.476;2023-05-10T09:15:03;18.83;50.45
68867;SHT30;56451;44.804;20.476;2023-05-10T09:17:31;18.88;50.60
68867;SHT30;56451;44.804;20.476;2023-05-10T09:20:00;18.88;50.08
68867;SHT30;56451;44.804;20.476;2023-05-10T09:22:27;18.90;50.29
68867;SHT30;56451;44.804;20.476;2023-05-10T09:25:05;18.87;50.21
68867;SHT30;56451;44.804;20.476;2023-05-10T09:27:32;18.96;50.24
68867;SHT30;56451;44.804;20.476;2023-05-10T09:29:58;19.00;50.09
68867;SHT30;56451;44.804;20.476;2023-05-10T09:32:44;19.01;50.14
68867;SHT30;56451;44.804;20.476;2023-05-10T09:35:11;19.08;50.25
68867;SHT30;56451;44.804;20.476;2023-05-10T09:37:45;19.07;49.86
68867;SHT30;56451;44.804;20.476;2023-05-10T09:40:16;19.04;49.69
68867;SHT30;56451;44.804;20.476;2023-05-10T09:43:03;19.08;49.72
68867;SHT30;56451;44.804;20.476;2023-05-10T09:45:31;19.12;49.88
68867;SHT30;56451;44.804;20.476;2023-05-10T09:47:58;19.14;49.68
68867;SHT30;56451;44.804;20.476;2023-05-10T09:50:25;19.19;49.53
68867;SHT30;56451;44.804;20.476;2023-05-10T09:55:46;19.31;49.02
68867;SHT30;56451;44.804;20.476;2023-05-10T09:58:12;19.34;49.00
68867;SHT30;56451;44.804;20.476;2023-05-10T10:00:40;19.41;48.88
68867;SHT30;56451;44.804;20.476;2023-05-10T10:03:12;19.39;48.40
68867;SHT30;56451;44.804;20.476;2023-05-10T10:05:40;19.44;48.63
68867;SHT30;56451;44.804;20.476;2023-05-10T10:08:10;19.45;48.41
68867;SHT30;56451;44.804;20.476;2023-05-10T10:10:37;19.52;48.35
68867;SHT30;56451;44.804;20.476;2023-05-10T10:13:06;19.55;48.23
68867;SHT30;56451;44.804;20.476;2023-05-10T10:15:35;19.61;47.84
68867;SHT30;56451;44.804;20.476;2023-05-10T10:18:01;19.63;47.40
68867;SHT30;56451;44.804;20.476;2023-05-10T10:20:29;19.61;47.54
68867;SHT30;56451;44.804;20.476;2023-05-10T10:22:55;19.66;47.29
68867;SHT30;56451;44.804;20.476;2023-05-10T10:25:21;19.67;46.88
68867;SHT30;56451;44.804;20.476;2023-05-10T10:33:30;19.80;47.17
68867;SHT30;56451;44.804;20.476;2023-05-10T10:36:01;19.87;46.91
68867;SHT30;56451;44.804;20.476;2023-05-10T10:38:54;19.94;46.60
68867;SHT30;56451;44.804;20.476;2023-05-10T10:41:51;19.94;46.04
68867;SHT30;56451;44.804;20.476;2023-05-10T10:49:31;20.03;46.09
68867;SHT30;56451;44.804;20.476;2023-05-10T10:52:21;20.06;45.94
68867;SHT30;56451;44.804;20.476;2023-05-10T10:54:52;20.13;46.24
68867;SHT30;56451;44.804;20.476;2023-05-10T10:57:19;20.18;45.76
68867;SHT30;56451;44.804;20.476;2023-05-10T10:59:47;20.24;45.78
68867;SHT30;56451;44.804;20.476;2023-05-10T11:02:33;20.23;45.48
68867;SHT30;56451;44.804;20.476;2023-05-10T11:04:59;20.23;45.53
68867;SHT30;56451;44.804;20.476;2023-05-10T11:07:26;20.33;45.27
68867;SHT30;56451;44.804;20.476;2023-05-10T11:09:52;20.44;45.56
68867;SHT30;56451;44.804;20.476;2023-05-10T11:12:18;20.47;44.82
68867;SHT30;56451;44.804;20.476;2023-05-10T11:14:49;20.52;44.69
68867;SHT30;56451;44.804;20.476;2023-05-10T11:17:26;20.54;44.71
68867;SHT30;56451;44.804;20.476;2023-05-10T11:20:09;20.61;44.82
68867;SHT30;56451;44.804;20.476;2023-05-10T11:22:52;20.67;44.69
68867;SHT30;56451;44.804;20.476;2023-05-10T11:25:19;20.65;44.67
68867;SHT30;56451;44.804;20.476;2023-05-10T11:27:48;20.68;44.71
68867;SHT30;56451;44.804;20.476;2023-05-10T11:30:14;20.71;44.55
68867;SHT30;56451;44.804;20.476;2023-05-10T11:32:40;20.72;44.59
68867;SHT30;56451;44.804;20.476;2023-05-10T11:35:11;20.76;44.51
68867;SHT30;56451;44.804;20.476;2023-05-10T11:37:38;20.79;44.51
68867;SHT30;56451;44.804;20.476;2023-05-10T11:40:10;20.88;44.56
68867;SHT30;56451;44.804;20.476;2023-05-10T11:42:39;20.93;44.12
68867;SHT30;56451;44.804;20.476;2023-05-10T11:45:06;20.92;44.13
68867;SHT30;56451;44.804;20.476;2023-05-10T11:47:32;20.93;44.21
68867;SHT30;56451;44.804;20.476;2023-05-10T11:49:58;20.98;44.40
68867;SHT30;56451;44.804;20.476;2023-05-10T11:52:24;20.98;44.30
68867;SHT30;56451;44.804;20.476;2023-05-10T11:54:54;21.00;44.33
68867;SHT30;56451;44.804;20.476;2023-05-10T11:57:25;20.98;43.94
68867;SHT30;56451;44.804;20.476;2023-05-10T11:59:56;20.95;43.99
68867;SHT30;56451;44.804;20.476;2023-05-10T12:02:22;20.92;44.38
68867;SHT30;56451;44.804;20.476;2023-05-10T12:04:49;20.93;44.35
68867;SHT30;56451;44.804;20.476;2023-05-10T12:07:16;20.96;44.17
68867;SHT30;56451;44.804;20.476;2023-05-10T12:10:09;20.99;43.87
68867;SHT30;56451;44.804;20.476;2023-05-10T12:12:39;20.95;43.80
68867;SHT30;56451;44.804;20.476;2023-05-10T12:15:17;20.96;44.06
68867;SHT30;56451;44.804;20.476;2023-05-10T12:17:44;21.03;44.08
68867;SHT30;56451;44.804;20.476;2023-05-10T12:25:19;21.13;43.86
68867;SHT30;56451;44.804;20.476;2023-05-10T12:27:51;21.16;43.90
68867;SHT30;56451;44.804;20.476;2023-05-10T12:30:28;21.19;43.77
68867;SHT30;56451;44.804;20.476;2023-05-10T12:32:59;21.29;43.55
68867;SHT30;56451;44.804;20.476;2023-05-10T12:35:25;21.31;43.59
68867;SHT30;56451;44.804;20.476;2023-05-10T12:37:51;21.37;43.58
68867;SHT30;56451;44.804;20.476;2023-05-10T12:40:19;21.41;42.93
68867;SHT30;56451;44.804;20.476;2023-05-10T12:42:45;21.44;42.84
68867;SHT30;56451;44.804;20.476;2023-05-10T12:45:11;21.43;42.34
68867;SHT30;56451;44.804;20.476;2023-05-10T12:47:46;21.37;42.93
68867;SHT30;56451;44.804;20.476;2023-05-10T12:50:12;21.39;43.20
68867;SHT30;56451;44.804;20.476;2023-05-10T12:52:38;21.43;42.63
68867;SHT30;56451;44.804;20.476;2023-05-10T12:55:04;21.44;42.82
68867;SHT30;56451;44.804;20.476;2023-05-10T12:57:30;21.46;43.08
68867;SHT30;56451;44.804;20.476;2023-05-10T12:59:56;21.54;42.98
68867;SHT30;56451;44.804;20.476;2023-05-10T13:02:22;21.58;42.23
68867;SHT30;56451;44.804;20.476;2023-05-10T13:04:49;21.54;42.17
68867;SHT30;56451;44.804;20.476;2023-05-10T13:07:15;21.54;42.50
68867;SHT30;56451;44.804;20.476;2023-05-10T13:09:42;21.64;42.54
68867;SHT30;56451;44.804;20.476;2023-05-10T13:12:07;21.69;42.44
68867;SHT30;56451;44.804;20.476;2023-05-10T13:14:33;21.67;42.31
68867;SHT30;56451;44.804;20.476;2023-05-10T13:16:59;21.61;42.43
68867;SHT30;56451;44.804;20.476;2023-05-10T13:19:25;21.61;42.62
68867;SHT30;56451;44.804;20.476;2023-05-10T13:21:51;21.65;42.51
68867;SHT30;56451;44.804;20.476;2023-05-10T13:24:17;21.73;42.31
68867;SHT30;56451;44.804;20.476;2023-05-10T13:26:43;21.73;42.07
68867;SHT30;56451;44.804;20.476;2023-05-10T13:29:09;21.77;42.30
68867;SHT30;56451;44.804;20.476;2023-05-10T13:31:35;21.77;42.03
68867;SHT30;56451;44.804;20.476;2023-05-10T13:34:01;21.79;42.13
68867;SHT30;56451;44.804;20.476;2023-05-10T13:36:28;21.85;42.09
68867;SHT30;56451;44.804;20.476;2023-05-10T13:38:54;21.88;41.92
68867;SHT30;56451;44.804;20.476;2023-05-10T13:41:20;21.88;42.05
68867;SHT30;56451;44.804;20.476;2023-05-10T13:43:46;21.88;41.98
68867;SHT30;56451;44.804;20.476;2023-05-10T13:46:14;21.89;42.08
68867;SHT30;56451;44.804;20.476;2023-05-10T13:48:40;21.95;41.89
68867;SHT30;56451;44.804;20.476;2023-05-10T13:51:06;22.04;41.94
68867;SHT30;56451;44.804;20.476;2023-05-10T13:53:32;22.10;41.86
68867;SHT30;56451;44.804;20.476;2023-05-10T13:55:58;22.13;41.25
68867;SHT30;56451;44.804;20.476;2023-05-10T13:58:24;22.16;41.42
68867;SHT30;56451;44.804;20.476;2023-05-10T14:00:50;22.23;40.97
68867;SHT30;56451;44.804;20.476;2023-05-10T14:03:16;22.30;41.14
68867;SHT30;56451;44.804;20.476;2023-05-10T14:05:42;22.36;41.00
68867;SHT30;56451;44.804;20.476;2023-05-10T14:08:08;22.46;40.86
68867;SHT30;56451;44.804;20.476;2023-05-10T14:10:35;22.54;40.22
68867;SHT30;56451;44.804;20.476;2023-05-10T14:13:02;22.57;40.32
68867;SHT30;56451;44.804;20.476;2023-05-10T14:15:28;22.64;40.43
68867;SHT30;56451;44.804;20.476;2023-05-10T14:17:54;22.75;39.91
68867;SHT30;56451;44.804;20.476;2023-05-10T14:20:20;22.74;39.92
68867;SHT30;56451;44.804;20.476;2023-05-10T14:22:46;22.78;39.91
68867;SHT30;56451;44.804;20.476;2023-05-10T14:25:13;22.83;39.93
68867;SHT30;56451;44.804;20.476;2023-05-10T14:27:40;22.93;40.08
68867;SHT30;56451;44.804;20.476;2023-05-10T14:30:06;23.01;39.57
68867;SHT30;56451;44.804;20.476;2023-05-10T14:32:32;23.01;39.38
68867;SHT30;56451;44.804;20.476;2023-05-10T14:34:58;22.98;39.45
68867;SHT30;56451;44.804;20.476;2023-05-10T14:37:24;22.95;39.19
68867;SHT30;56451;44.804;20.476;2023-05-10T14:39:50;22.97;39.48
68867;SHT30;56451;44.804;20.476;2023-05-10T14:42:16;22.95;39.34
68867;SHT30;56451;44.804;20.476;2023-05-10T14:44:42;22.95;39.35
68867;SHT30;56451;44.804;20.476;2023-05-10T14:47:08;23.00;39.16
68867;SHT30;56451;44.804;20.476;2023-05-10T14:49:33;23.02;39.20
68867;SHT30;56451;44.804;20.476;2023-05-10T14:52:00;23.07;38.91
68867;SHT30;56451;44.804;20.476;2023-05-10T14:54:26;23.04;39.09
68867;SHT30;56451;44.804;20.476;2023-05-10T14:56:52;23.05;39.21
68867;SHT30;56451;44.804;20.476;2023-05-10T14:59:18;23.10;39.03
68867;SHT30;56451;44.804;20.476;2023-05-10T15:01:44;23.14;39.00
68867;SHT30;56451;44.804;20.476;2023-05-10T15:04:10;23.14;38.90
68867;SHT30;56451;44.804;20.476;2023-05-10T15:06:36;23.04;38.95
68867;SHT30;56451;44.804;20.476;2023-05-10T15:09:02;23.02;39.38
68867;SHT30;56451;44.804;20.476;2023-05-10T15:11:31;23.10;39.07
68867;SHT30;56451;44.804;20.476;2023-05-10T15:13:57;23.22;38.86
68867;SHT30;56451;44.804;20.476;2023-05-10T15:16:23;23.14;38.46
68867;SHT30;56451;44.804;20.476;2023-05-10T15:18:49;23.12;38.52
68867;SHT30;56451;44.804;20.476;2023-05-10T15:21:15;23.11;38.38
68867;SHT30;56451;44.804;20.476;2023-05-10T15:23:41;23.14;38.64
68867;SHT30;56451;44.804;20.476;2023-05-10T15:26:07;23.18;38.32
68867;SHT30;56451;44.804;20.476;2023-05-10T15:28:33;23.15;38.46
68867;SHT30;56451;44.804;20.476;2023-05-10T15:30:59;23.23;38.40
68867;SHT30;56451;44.804;20.476;2023-05-10T15:33:26;23.21;38.44
68867;SHT30;56451;44.804;20.476;2023-05-10T15:35:53;23.21;38.77
68867;SHT30;56451;44.804;20.476;2023-05-10T15:38:19;23.21;38.20
68867;SHT30;56451;44.804;20.476;2023-05-10T15:40:45;23.10;38.34
68867;SHT30;56451;44.804;20.476;2023-05-10T15:43:11;23.04;38.40
68867;SHT30;56451;44.804;20.476;2023-05-10T15:45:37;23.12;38.40
68867;SHT30;56451;44.804;20.476;2023-05-10T15:48:03;23.14;38.44
68867;SHT30;56451;44.804;20.476;2023-05-10T15:50:29;23.12;38.49
68867;SHT30;56451;44.804;20.476;2023-05-10T15:52:55;23.11;38.18
68867;SHT30;56451;44.804;20.476;2023-05-10T15:55:20;23.11;38.02
68867;SHT30;56451;44.804;20.476;2023-05-10T15:57:47;23.05;38.21